Weather at Gitega Airport

Public forecast

Using degrees Celsius for public forecast. Weather courtesy of forecast.io.

Closest aviation weather report (METAR) to Gitega Airport

Closest report is Bujumbura Melchior Ndadaye International Airport, 36.0 nm (66.6 km) W. Retrieved 2021/10/22 03:00 UTC (10 minutes ago):

HBBA 220300Z 00000KT 9999 FEW03020/19 Q1013 NOSIG

Closest aviation forecast (TAF) to Gitega Airport

Forecast is more than 12 hours old.

Closest forecast is Bujumbura Melchior Ndadaye International Airport, 36.0 nm (66.6 km) W. Retrieved 2021/10/21 12:09 UTC (15 hours ago):

TAF TAF HBBA 211100Z 2112/2218 18010G25KT 9999 FEW030 BKN120 PROB40 TEMPO2113/2116 7000 FEW030CB SHRA OR TSRA BECMG2202/2204 36004KT 9999 SCT100 BECMG2207/2209 18010G20KT 9999 FEW030 BKN120